Time;durP1;ratioP1;P1;durP2;ratioP2;P2;SDS_P1;SDS_P2;PMS_P1;PMS_P2;Temp;Humidity;BMP_temperature;BMP_pressure;BME280_temperature;BME280_humidity;BME280_pressure;Samples;Min_cycle;Max_cycle;Signal;HPM_P1;HPM_P2
2023/08/19 00:02:00;;;;;;;1.52;1.52;;;;;;;;;;5014237;28;20026;-77
2023/08/19 00:04:26;;;;;;;1.80;1.70;;;;;;;;;;5013332;28;20362;-78
2023/08/19 00:06:52;;;;;;;1.58;1.48;;;;;;;;;;5008664;28;20019;-77
2023/08/19 00:09:18;;;;;;;1.20;1.20;;;;;;;;;;5018440;28;20030;-76
2023/08/19 00:11:44;;;;;;;1.58;1.48;;;;;;;;;;5020539;28;20053;-76
2023/08/19 00:14:10;;;;;;;1.63;1.52;;;;;;;;;;5015662;28;20026;-77
2023/08/19 00:16:36;;;;;;;1.60;1.50;;;;;;;;;;5008884;28;20101;-77
2023/08/19 00:19:03;;;;;;;1.70;1.60;;;;;;;;;;5010748;28;20022;-77
2023/08/19 00:21:29;;;;;;;1.45;1.35;;;;;;;;;;4997490;28;20105;-77
2023/08/19 00:23:56;;;;;;;1.25;1.25;;;;;;;;;;5015352;28;20021;-77
2023/08/19 00:26:24;;;;;;;1.50;1.40;;;;;;;;;;5013128;28;20394;-77
2023/08/19 00:28:51;;;;;;;1.90;1.80;;;;;;;;;;5010951;28;20022;-78
2023/08/19 00:31:17;;;;;;;1.55;1.45;;;;;;;;;;5016579;28;20084;-78
2023/08/19 00:33:43;;;;;;;1.70;1.60;;;;;;;;;;5016295;28;20026;-78
2023/08/19 00:36:09;;;;;;;1.80;1.70;;;;;;;;;;5014479;28;20030;-78
2023/08/19 00:38:35;;;;;;;1.60;1.50;;;;;;;;;;5011014;28;20026;-78
2023/08/19 00:41:03;;;;;;;1.42;1.40;;;;;;;;;;5015887;28;20014;-77
2023/08/19 00:43:30;;;;;;;1.63;1.52;;;;;;;;;;4997594;28;20034;-78
2023/08/19 00:45:56;;;;;;;1.23;1.23;;;;;;;;;;5017716;28;20048;-78
2023/08/19 00:48:25;;;;;;;1.40;1.40;;;;;;;;;;5029996;28;20052;-77
2023/08/19 00:50:51;;;;;;;1.10;1.10;;;;;;;;;;5041691;28;20022;-76
2023/08/19 00:53:17;;;;;;;1.25;1.20;;;;;;;;;;5035586;28;20037;-77
2023/08/19 00:55:43;;;;;;;1.60;1.50;;;;;;;;;;5035105;28;20022;-75
2023/08/19 00:58:09;;;;;;;1.60;1.50;;;;;;;;;;5023407;28;20033;-78
2023/08/19 01:00:35;;;;;;;1.38;1.38;;;;;;;;;;5020585;28;20026;-78
2023/08/19 01:03:06;;;;;;;1.90;1.80;;;;;;;;;;5015702;28;20014;-77
2023/08/19 01:05:38;;;;;;;1.17;1.17;;;;;;;;;;5014164;28;20014;-78
2023/08/19 01:08:08;;;;;;;1.60;1.50;;;;;;;;;;5011148;28;20679;-77
2023/08/19 01:10:40;;;;;;;1.38;1.38;;;;;;;;;;4997094;28;20030;-77
2023/08/19 01:13:12;;;;;;;1.58;1.48;;;;;;;;;;4999549;28;20022;-77
2023/08/19 01:15:45;;;;;;;1.73;1.63;;;;;;;;;;4992501;28;20662;-77
2023/08/19 01:18:12;;;;;;;1.52;1.42;;;;;;;;;;5016264;28;20041;-77
2023/08/19 01:20:39;;;;;;;1.20;1.20;;;;;;;;;;5018093;28;20025;-77
2023/08/19 01:23:16;;;;;;;1.30;1.30;;;;;;;;;;5017897;28;20018;-78
2023/08/19 01:25:43;;;;;;;1.35;1.27;;;;;;;;;;5017988;28;20075;-78
2023/08/19 01:28:09;;;;;;;1.42;1.40;;;;;;;;;;5016132;28;20040;-78
2023/08/19 01:30:35;;;;;;;1.20;1.20;;;;;;;;;;5000719;28;20080;-78
2023/08/19 01:33:04;;;;;;;1.20;1.20;;;;;;;;;;5017619;28;20041;-77
2023/08/19 01:35:32;;;;;;;1.40;1.38;;;;;;;;;;5016558;28;20034;-77
2023/08/19 01:38:13;;;;;;;1.58;1.48;;;;;;;;;;5015452;28;20510;-78
2023/08/19 01:40:40;;;;;;;1.70;1.60;;;;;;;;;;5015809;28;20373;-78
2023/08/19 01:43:10;;;;;;;1.60;1.50;;;;;;;;;;5020245;28;20072;-76
2023/08/19 01:45:36;;;;;;;1.67;1.58;;;;;;;;;;5009850;28;20026;-78
2023/08/19 01:48:03;;;;;;;1.73;1.63;;;;;;;;;;5013897;28;20017;-77
2023/08/19 01:50:29;;;;;;;1.65;1.55;;;;;;;;;;5012647;28;20022;-77
2023/08/19 01:52:55;;;;;;;1.33;1.33;;;;;;;;;;5013143;28;20030;-76
2023/08/19 01:55:22;;;;;;;1.85;1.75;;;;;;;;;;5013157;28;20089;-77
2023/08/19 01:57:48;;;;;;;1.60;1.50;;;;;;;;;;5010795;28;20084;-77
2023/08/19 02:00:14;;;;;;;1.38;1.33;;;;;;;;;;5007186;28;20026;-77
2023/08/19 02:02:41;;;;;;;1.83;1.73;;;;;;;;;;5019331;28;20022;-77
2023/08/19 02:05:12;;;;;;;1.77;1.67;;;;;;;;;;4996075;28;20033;-77
2023/08/19 02:07:38;;;;;;;1.60;1.50;;;;;;;;;;5013674;28;20032;-77
2023/08/19 02:10:05;;;;;;;1.40;1.40;;;;;;;;;;5021609;28;20307;-77
2023/08/19 02:12:31;;;;;;;1.60;1.50;;;;;;;;;;5018265;28;20106;-78
2023/08/19 02:14:57;;;;;;;1.65;1.58;;;;;;;;;;5020185;28;20022;-77
2023/08/19 02:17:23;;;;;;;1.83;1.73;;;;;;;;;;5033622;28;20082;-77
2023/08/19 02:19:49;;;;;;;1.25;1.25;;;;;;;;;;5022483;28;20021;-77
2023/08/19 02:22:20;;;;;;;1.80;1.70;;;;;;;;;;5034281;28;20030;-77
2023/08/19 02:24:46;;;;;;;1.70;1.60;;;;;;;;;;5031076;28;20444;-77
2023/08/19 02:27:12;;;;;;;1.55;1.45;;;;;;;;;;5027937;28;20079;-77
2023/08/19 02:29:38;;;;;;;1.70;1.60;;;;;;;;;;5024600;28;20032;-78
2023/08/19 02:32:05;;;;;;;1.52;1.42;;;;;;;;;;5022058;28;20026;-77
2023/08/19 02:34:31;;;;;;;1.70;1.60;;;;;;;;;;5029922;28;20030;-78
2023/08/19 02:36:57;;;;;;;1.42;1.33;;;;;;;;;;5018637;28;20083;-78
2023/08/19 02:39:23;;;;;;;1.63;1.52;;;;;;;;;;5017405;28;20398;-77
2023/08/19 02:41:49;;;;;;;1.55;1.50;;;;;;;;;;5016713;28;20021;-78
2023/08/19 02:44:15;;;;;;;1.52;1.42;;;;;;;;;;5032495;28;20026;-78
2023/08/19 02:46:41;;;;;;;1.75;1.65;;;;;;;;;;5039456;28;20022;-78
2023/08/19 02:49:07;;;;;;;1.63;1.52;;;;;;;;;;5033506;28;20010;-78
2023/08/19 02:51:33;;;;;;;1.17;1.17;;;;;;;;;;5024459;28;20033;-77
2023/08/19 02:54:00;;;;;;;1.38;1.33;;;;;;;;;;5016278;28;20025;-77
2023/08/19 02:56:26;;;;;;;1.50;1.40;;;;;;;;;;5019049;28;20026;-76
2023/08/19 02:58:52;;;;;;;1.65;1.55;;;;;;;;;;5016310;28;20455;-77
2023/08/19 03:01:18;;;;;;;1.50;1.40;;;;;;;;;;5016783;28;20510;-77
2023/08/19 03:03:44;;;;;;;1.60;1.50;;;;;;;;;;5016497;28;20025;-77
2023/08/19 03:06:11;;;;;;;1.17;1.17;;;;;;;;;;4995194;28;20539;-77
2023/08/19 03:08:37;;;;;;;1.70;1.60;;;;;;;;;;5027724;28;20034;-77
2023/08/19 03:11:03;;;;;;;1.20;1.20;;;;;;;;;;5021641;28;20448;-77
2023/08/19 03:13:29;;;;;;;1.23;1.23;;;;;;;;;;5028297;28;20163;-77
2023/08/19 03:15:59;;;;;;;1.27;1.27;;;;;;;;;;5019721;28;20045;-77
2023/08/19 03:18:25;;;;;;;1.60;1.50;;;;;;;;;;5013427;28;20041;-77
2023/08/19 03:21:01;;;;;;;1.30;1.30;;;;;;;;;;5024040;28;20393;-77
2023/08/19 03:23:27;;;;;;;1.50;1.40;;;;;;;;;;5017152;28;20065;-76
2023/08/19 03:25:53;;;;;;;1.63;1.52;;;;;;;;;;5017564;28;20161;-77
2023/08/19 03:28:19;;;;;;;1.13;1.13;;;;;;;;;;5017519;28;20025;-77
2023/08/19 03:30:46;;;;;;;1.80;1.70;;;;;;;;;;5016373;28;20053;-77
2023/08/19 03:33:12;;;;;;;1.48;1.38;;;;;;;;;;5015492;28;20017;-77
2023/08/19 03:35:38;;;;;;;1.30;1.30;;;;;;;;;;5015397;28;20033;-77
2023/08/19 03:38:04;;;;;;;1.35;1.27;;;;;;;;;;5018602;28;20061;-76
2023/08/19 03:40:30;;;;;;;1.65;1.55;;;;;;;;;;5027525;28;20113;-77
2023/08/19 03:42:56;;;;;;;1.50;1.42;;;;;;;;;;5031874;28;20377;-77
2023/08/19 03:45:22;;;;;;;1.63;1.52;;;;;;;;;;5038365;28;20021;-77
2023/08/19 03:47:49;;;;;;;1.40;1.30;;;;;;;;;;4993099;28;20034;-78
2023/08/19 03:50:15;;;;;;;1.75;1.65;;;;;;;;;;5019279;28;20435;-77
2023/08/19 03:52:41;;;;;;;1.10;1.10;;;;;;;;;;4996216;28;20382;-77
2023/08/19 03:55:07;;;;;;;1.60;1.50;;;;;;;;;;5013577;28;20057;-77
2023/08/19 03:57:33;;;;;;;1.25;1.20;;;;;;;;;;5013566;28;20030;-77
2023/08/19 03:59:59;;;;;;;1.60;1.50;;;;;;;;;;5007944;28;20018;-76
2023/08/19 04:02:25;;;;;;;1.73;1.63;;;;;;;;;;5013639;28;20049;-76
2023/08/19 04:05:02;;;;;;;1.40;1.40;;;;;;;;;;5018699;28;20013;-76
2023/08/19 04:07:28;;;;;;;1.77;1.67;;;;;;;;;;5015034;28;20038;-77
2023/08/19 04:09:55;;;;;;;1.63;1.52;;;;;;;;;;5013533;28;20048;-76
2023/08/19 04:12:22;;;;;;;1.48;1.38;;;;;;;;;;5010324;28;20069;-77
2023/08/19 04:14:48;;;;;;;1.60;1.50;;;;;;;;;;5001825;28;20029;-76
2023/08/19 04:17:14;;;;;;;1.15;1.15;;;;;;;;;;5013697;28;20034;-77
2023/08/19 04:19:40;;;;;;;1.45;1.35;;;;;;;;;;5007297;28;20032;-77
2023/08/19 04:22:06;;;;;;;1.00;1.00;;;;;;;;;;5020951;28;20018;-77
2023/08/19 04:24:37;;;;;;;1.25;1.25;;;;;;;;;;5015794;28;20037;-77
2023/08/19 04:27:03;;;;;;;1.23;1.13;;;;;;;;;;5021841;28;20038;-76
2023/08/19 04:29:32;;;;;;;1.60;1.50;;;;;;;;;;5023952;28;20022;-76
2023/08/19 04:31:59;;;;;;;1.10;1.10;;;;;;;;;;5020179;28;20056;-76
2023/08/19 04:34:25;;;;;;;1.52;1.42;;;;;;;;;;5020705;28;20026;-76
2023/08/19 04:36:51;;;;;;;1.02;1.02;;;;;;;;;;5004837;28;20030;-75
2023/08/19 04:39:17;;;;;;;1.00;1.00;;;;;;;;;;4997359;28;20029;-77
2023/08/19 04:41:43;;;;;;;0.98;0.98;;;;;;;;;;5014860;28;20018;-77
2023/08/19 04:44:10;;;;;;;1.17;1.13;;;;;;;;;;5025421;28;20066;-78
2023/08/19 04:46:36;;;;;;;1.20;1.17;;;;;;;;;;5013974;28;20030;-77
2023/08/19 04:49:02;;;;;;;1.08;1.08;;;;;;;;;;5002797;28;20404;-77
2023/08/19 04:51:29;;;;;;;1.48;1.40;;;;;;;;;;5031300;28;20115;-76
2023/08/19 04:53:55;;;;;;;0.90;0.90;;;;;;;;;;5003420;28;20034;-76
2023/08/19 04:56:21;;;;;;;1.45;1.35;;;;;;;;;;4993192;28;20081;-76
2023/08/19 04:58:47;;;;;;;1.20;1.20;;;;;;;;;;4993135;28;20076;-77
2023/08/19 05:01:13;;;;;;;1.38;1.30;;;;;;;;;;4998952;28;20126;-77
2023/08/19 05:03:39;;;;;;;1.45;1.38;;;;;;;;;;4996210;28;20014;-77
2023/08/19 05:06:05;;;;;;;1.20;1.20;;;;;;;;;;5005658;28;20026;-77
2023/08/19 05:08:31;;;;;;;1.20;1.20;;;;;;;;;;4993381;28;20081;-77
2023/08/19 05:10:58;;;;;;;1.45;1.35;;;;;;;;;;4993012;28;20030;-77
2023/08/19 05:13:24;;;;;;;1.30;1.30;;;;;;;;;;4995793;28;20029;-77
2023/08/19 05:15:50;;;;;;;1.20;1.20;;;;;;;;;;5012918;28;20026;-76
2023/08/19 05:18:16;;;;;;;1.33;1.23;;;;;;;;;;5013172;28;20037;-76
2023/08/19 05:20:42;;;;;;;1.27;1.27;;;;;;;;;;5013392;28;20022;-76
2023/08/19 05:23:08;;;;;;;1.13;1.02;;;;;;;;;;5013438;28;20037;-76
2023/08/19 05:25:35;;;;;;;1.20;1.20;;;;;;;;;;5017076;28;20056;-78
2023/08/19 05:28:01;;;;;;;1.23;1.23;;;;;;;;;;5023378;28;20376;-78
2023/08/19 05:30:27;;;;;;;1.10;1.10;;;;;;;;;;5022577;28;20037;-76
2023/08/19 05:32:53;;;;;;;1.20;1.17;;;;;;;;;;5013817;28;20022;-78
2023/08/19 05:35:20;;;;;;;1.20;1.20;;;;;;;;;;5011724;28;20037;-78
2023/08/19 05:37:46;;;;;;;0.98;0.98;;;;;;;;;;4998138;28;20158;-79
2023/08/19 05:40:12;;;;;;;1.00;1.00;;;;;;;;;;5026700;28;20026;-77
2023/08/19 05:42:38;;;;;;;1.10;1.10;;;;;;;;;;5025986;28;20030;-78
2023/08/19 05:45:04;;;;;;;1.20;1.20;;;;;;;;;;4990189;28;20058;-79
2023/08/19 05:47:30;;;;;;;1.25;1.15;;;;;;;;;;4996707;28;20080;-77
2023/08/19 05:49:56;;;;;;;1.20;1.20;;;;;;;;;;4997297;28;20050;-76
2023/08/19 05:52:22;;;;;;;1.27;1.20;;;;;;;;;;4979629;28;20495;-77
2023/08/19 05:54:49;;;;;;;1.08;1.08;;;;;;;;;;4999720;28;20038;-76
2023/08/19 05:57:15;;;;;;;1.58;1.48;;;;;;;;;;5016695;28;20441;-77
2023/08/19 05:59:41;;;;;;;1.05;1.05;;;;;;;;;;5015938;28;20026;-78
2023/08/19 06:02:08;;;;;;;1.33;1.23;;;;;;;;;;5014454;28;20049;-77
2023/08/19 06:04:34;;;;;;;1.95;1.00;;;;;;;;;;5016097;28;20013;-77
2023/08/19 06:07:00;;;;;;;1.00;1.00;;;;;;;;;;5015450;28;20517;-77
2023/08/19 06:09:26;;;;;;;1.10;1.10;;;;;;;;;;5016355;28;20026;-77
2023/08/19 06:11:53;;;;;;;1.10;1.00;;;;;;;;;;5016054;28;20032;-77
2023/08/19 06:14:19;;;;;;;1.10;1.10;;;;;;;;;;5015743;28;20075;-77
2023/08/19 06:16:46;;;;;;;1.30;1.30;;;;;;;;;;5015627;28;20555;-76
2023/08/19 06:19:12;;;;;;;1.15;1.00;;;;;;;;;;5016250;28;20105;-77
2023/08/19 06:21:38;;;;;;;1.17;1.17;;;;;;;;;;5016010;28;20025;-76
2023/08/19 06:24:05;;;;;;;1.00;1.00;;;;;;;;;;5015312;28;20511;-77
2023/08/19 06:26:31;;;;;;;1.25;1.10;;;;;;;;;;5006744;28;20026;-77
2023/08/19 06:28:57;;;;;;;1.00;1.00;;;;;;;;;;5000177;28;20026;-77
2023/08/19 06:31:24;;;;;;;1.15;1.15;;;;;;;;;;5015285;28;20495;-77
2023/08/19 06:33:54;;;;;;;1.10;1.10;;;;;;;;;;5015113;28;20030;-77
2023/08/19 06:36:29;;;;;;;0.90;0.90;;;;;;;;;;5014684;28;20046;-78
2023/08/19 06:39:03;;;;;;;0.90;0.90;;;;;;;;;;5005531;28;20434;-78
2023/08/19 06:41:30;;;;;;;1.02;1.00;;;;;;;;;;4996776;28;20027;-77
2023/08/19 06:43:57;;;;;;;1.13;1.02;;;;;;;;;;4995613;28;20081;-77
2023/08/19 06:46:23;;;;;;;1.13;1.05;;;;;;;;;;4998477;28;20027;-78
2023/08/19 06:48:51;;;;;;;1.15;1.15;;;;;;;;;;5002638;28;20022;-77
2023/08/19 06:51:17;;;;;;;0.75;0.75;;;;;;;;;;5016330;28;20130;-77
2023/08/19 06:53:43;;;;;;;0.90;0.90;;;;;;;;;;5016142;28;20025;-77
2023/08/19 06:56:24;;;;;;;0.82;0.82;;;;;;;;;;5016780;28;20058;-77
2023/08/19 06:58:55;;;;;;;0.80;0.80;;;;;;;;;;5002178;28;20036;-77
2023/08/19 07:01:25;;;;;;;0.90;0.90;;;;;;;;;;5016496;28;20253;-77
2023/08/19 07:03:52;;;;;;;1.40;1.30;;;;;;;;;;5019667;28;20109;-77
2023/08/19 07:06:19;;;;;;;1.65;1.45;;;;;;;;;;5015362;28;20373;-78
2023/08/19 07:08:46;;;;;;;1.60;1.50;;;;;;;;;;4984081;28;20432;-78
2023/08/19 07:11:12;;;;;;;1.70;1.60;;;;;;;;;;4997532;28;20029;-78
2023/08/19 07:13:38;;;;;;;1.77;1.67;;;;;;;;;;4996518;28;20042;-78
2023/08/19 07:16:05;;;;;;;1.50;1.40;;;;;;;;;;4997084;28;20026;-77
2023/08/19 07:18:35;;;;;;;1.65;1.55;;;;;;;;;;5012470;28;20121;-77
2023/08/19 07:21:02;;;;;;;1.92;1.83;;;;;;;;;;5015619;28;20014;-77
2023/08/19 07:23:29;;;;;;;1.60;1.50;;;;;;;;;;5014667;28;20436;-78
2023/08/19 07:25:55;;;;;;;1.25;1.25;;;;;;;;;;5015597;28;20111;-77
2023/08/19 07:28:25;;;;;;;1.70;1.60;;;;;;;;;;5006430;28;20034;-78
2023/08/19 07:30:52;;;;;;;1.48;1.38;;;;;;;;;;5015874;28;20022;-77
2023/08/19 07:33:18;;;;;;;1.40;1.30;;;;;;;;;;5019567;28;20540;-77
2023/08/19 07:35:45;;;;;;;2.78;1.67;;;;;;;;;;5016645;28;20045;-76
2023/08/19 07:38:11;;;;;;;1.65;1.55;;;;;;;;;;5023829;28;20057;-77
2023/08/19 07:40:37;;;;;;;3.30;2.00;;;;;;;;;;5023835;28;20481;-78
2023/08/19 07:43:03;;;;;;;2.72;2.47;;;;;;;;;;5014412;28;20022;-78
2023/08/19 07:45:29;;;;;;;2.28;1.83;;;;;;;;;;5014854;28;20052;-77
2023/08/19 07:47:55;;;;;;;2.00;1.90;;;;;;;;;;5010169;28;20019;-77
2023/08/19 07:50:22;;;;;;;2.50;2.30;;;;;;;;;;4994953;28;20042;-77
2023/08/19 07:52:48;;;;;;;2.10;1.90;;;;;;;;;;4994192;28;20728;-77
2023/08/19 07:55:14;;;;;;;2.42;1.77;;;;;;;;;;4994014;28;20019;-77
2023/08/19 07:57:40;;;;;;;1.77;1.67;;;;;;;;;;4994352;28;20081;-78
2023/08/19 08:00:07;;;;;;;2.25;2.05;;;;;;;;;;5011467;28;20030;-78
2023/08/19 08:02:33;;;;;;;2.00;1.90;;;;;;;;;;5013406;28;20018;-76
2023/08/19 08:04:59;;;;;;;2.75;2.53;;;;;;;;;;5014467;28;20029;-77
2023/08/19 08:07:25;;;;;;;2.50;2.30;;;;;;;;;;5014749;28;20018;-77
2023/08/19 08:09:51;;;;;;;2.30;1.80;;;;;;;;;;5013052;28;20557;-77
2023/08/19 08:12:17;;;;;;;3.55;2.13;;;;;;;;;;5013413;28;20045;-77
2023/08/19 08:14:43;;;;;;;2.17;2.08;;;;;;;;;;5014338;28;20052;-77
2023/08/19 08:17:10;;;;;;;3.75;2.35;;;;;;;;;;5013907;28;20021;-77
2023/08/19 08:19:36;;;;;;;2.13;2.00;;;;;;;;;;5025844;28;20026;-78
2023/08/19 08:22:02;;;;;;;2.38;2.17;;;;;;;;;;5011981;28;20021;-78
2023/08/19 08:24:28;;;;;;;2.33;2.13;;;;;;;;;;5015864;28;20033;-78
2023/08/19 08:26:54;;;;;;;1.98;1.85;;;;;;;;;;5013189;28;20030;-79
2023/08/19 08:29:20;;;;;;;2.60;2.40;;;;;;;;;;5012254;28;20026;-78
2023/08/19 08:31:46;;;;;;;2.05;1.95;;;;;;;;;;5017500;28;20676;-78
2023/08/19 08:34:12;;;;;;;1.98;1.80;;;;;;;;;;5034136;28;20033;-78
2023/08/19 08:36:38;;;;;;;2.33;1.92;;;;;;;;;;5032618;28;20044;-77
2023/08/19 08:39:05;;;;;;;3.10;2.10;;;;;;;;;;5032614;28;20172;-77
2023/08/19 08:41:32;;;;;;;2.47;2.03;;;;;;;;;;4994584;28;20097;-77
2023/08/19 08:43:58;;;;;;;2.08;1.90;;;;;;;;;;4993370;28;20022;-77
2023/08/19 08:46:26;;;;;;;2.10;2.00;;;;;;;;;;4993424;28;20034;-78
2023/08/19 08:48:52;;;;;;;1.92;1.83;;;;;;;;;;4993356;28;20031;-77
2023/08/19 08:51:18;;;;;;;1.83;1.73;;;;;;;;;;5006813;28;20045;-76
2023/08/19 08:53:46;;;;;;;2.78;2.20;;;;;;;;;;5012724;28;20125;-76
2023/08/19 08:56:13;;;;;;;2.40;2.20;;;;;;;;;;5012507;28;20033;-77
2023/08/19 08:58:39;;;;;;;2.33;2.13;;;;;;;;;;5012290;28;20026;-77
2023/08/19 09:01:06;;;;;;;2.58;2.38;;;;;;;;;;5011984;28;20020;-77
2023/08/19 09:03:34;;;;;;;1.85;1.75;;;;;;;;;;5011950;28;20057;-77
2023/08/19 09:06:08;;;;;;;1.88;1.65;;;;;;;;;;5013135;28;20455;-77
2023/08/19 09:08:57;;;;;;;1.88;1.77;;;;;;;;;;5013442;28;20029;-77
2023/08/19 09:11:27;;;;;;;4.00;2.10;;;;;;;;;;5004714;28;20061;-78
2023/08/19 09:14:02;;;;;;;2.40;2.20;;;;;;;;;;5012663;28;20398;-77
2023/08/19 09:16:28;;;;;;;1.98;1.88;;;;;;;;;;5014990;28;20026;-78
2023/08/19 09:18:54;;;;;;;2.30;2.10;;;;;;;;;;5013711;28;20022;-78
2023/08/19 09:21:20;;;;;;;2.50;2.30;;;;;;;;;;5006936;28;20023;-78
2023/08/19 09:23:46;;;;;;;2.50;2.30;;;;;;;;;;5002538;28;20061;-78
2023/08/19 09:26:12;;;;;;;3.53;2.70;;;;;;;;;;5012552;28;20069;-78
2023/08/19 09:28:41;;;;;;;2.58;2.30;;;;;;;;;;5012568;28;20034;-77
2023/08/19 09:31:20;;;;;;;3.20;2.35;;;;;;;;;;5011783;28;20385;-79
2023/08/19 09:33:50;;;;;;;3.25;2.20;;;;;;;;;;4993037;28;20027;-78
2023/08/19 09:36:16;;;;;;;2.20;2.10;;;;;;;;;;4993466;28;20053;-78
2023/08/19 09:38:43;;;;;;;2.58;2.38;;;;;;;;;;5005083;28;20082;-77
2023/08/19 09:41:10;;;;;;;1.80;1.70;;;;;;;;;;4995241;28;20106;-78
2023/08/19 09:43:39;;;;;;;2.38;2.17;;;;;;;;;;5010838;28;20029;-77
2023/08/19 09:46:07;;;;;;;2.95;2.08;;;;;;;;;;5013435;28;20054;-78
2023/08/19 09:48:35;;;;;;;2.50;2.30;;;;;;;;;;5012142;28;20096;-77
2023/08/19 09:51:01;;;;;;;3.22;2.45;;;;;;;;;;5011885;28;20034;-77
2023/08/19 09:53:30;;;;;;;4.75;2.47;;;;;;;;;;4997241;28;20085;-78
2023/08/19 09:55:57;;;;;;;2.85;2.30;;;;;;;;;;4992521;28;20489;-77
2023/08/19 09:58:25;;;;;;;3.03;2.50;;;;;;;;;;4992465;28;20085;-77
2023/08/19 10:00:51;;;;;;;5.72;2.63;;;;;;;;;;5011307;28;20018;-77
2023/08/19 10:03:17;;;;;;;3.03;2.80;;;;;;;;;;5010904;28;20095;-77
2023/08/19 10:05:44;;;;;;;3.80;2.42;;;;;;;;;;5011654;28;20018;-77
2023/08/19 10:08:23;;;;;;;3.20;2.88;;;;;;;;;;5011982;28;20073;-76
2023/08/19 10:10:49;;;;;;;3.75;2.47;;;;;;;;;;5011921;28;20026;-76
2023/08/19 10:13:17;;;;;;;2.90;2.70;;;;;;;;;;5012356;28;20046;-77
2023/08/19 10:15:43;;;;;;;2.20;2.10;;;;;;;;;;5000741;28;20034;-77
2023/08/19 10:18:12;;;;;;;2.90;2.70;;;;;;;;;;5006479;28;20030;-77
2023/08/19 10:20:39;;;;;;;2.70;2.50;;;;;;;;;;5012737;28;20046;-77
2023/08/19 10:23:07;;;;;;;2.65;2.45;;;;;;;;;;5008686;28;20073;-77
2023/08/19 10:25:34;;;;;;;2.70;2.50;;;;;;;;;;4994430;28;20023;-77
2023/08/19 10:28:07;;;;;;;3.05;2.85;;;;;;;;;;4995903;28;20022;-77
2023/08/19 10:30:33;;;;;;;2.38;2.20;;;;;;;;;;5001092;28;20026;-77
2023/08/19 10:33:25;;;;;;;2.50;2.25;;;;;;;;;;5028671;28;20522;-77
2023/08/19 10:35:59;;;;;;;2.75;2.55;;;;;;;;;;4997726;28;20034;-78
2023/08/19 10:38:25;;;;;;;2.72;2.53;;;;;;;;;;5015214;28;20021;-77
2023/08/19 10:41:02;;;;;;;2.28;2.17;;;;;;;;;;5014949;28;20025;-77
2023/08/19 10:43:28;;;;;;;2.60;2.40;;;;;;;;;;4996858;28;20025;-77
2023/08/19 10:45:58;;;;;;;2.53;2.35;;;;;;;;;;5011412;28;20054;-77
2023/08/19 10:48:33;;;;;;;3.50;2.45;;;;;;;;;;4995468;28;20454;-77
2023/08/19 10:50:59;;;;;;;2.92;2.28;;;;;;;;;;4995241;28;20049;-77
2023/08/19 10:53:25;;;;;;;2.50;2.30;;;;;;;;;;4995283;28;20058;-77
2023/08/19 10:55:52;;;;;;;2.08;1.98;;;;;;;;;;5011644;28;20076;-76
2023/08/19 10:58:18;;;;;;;3.05;2.20;;;;;;;;;;4996959;28;20034;-76
2023/08/19 11:00:45;;;;;;;2.97;2.63;;;;;;;;;;5025766;28;20498;-77
2023/08/19 11:03:12;;;;;;;3.80;2.22;;;;;;;;;;5034860;28;20025;-78
2023/08/19 11:05:48;;;;;;;2.85;2.65;;;;;;;;;;5021246;28;20041;-77
2023/08/19 11:08:15;;;;;;;3.03;2.67;;;;;;;;;;5016002;28;20026;-78
2023/08/19 11:10:44;;;;;;;2.65;2.50;;;;;;;;;;5016031;28;20041;-78
2023/08/19 11:13:10;;;;;;;4.15;2.53;;;;;;;;;;4997253;28;20026;-78
2023/08/19 11:15:37;;;;;;;2.35;2.17;;;;;;;;;;5006313;28;20027;-77
2023/08/19 11:18:03;;;;;;;4.22;2.58;;;;;;;;;;4979399;28;20030;-77
2023/08/19 11:20:29;;;;;;;2.80;2.47;;;;;;;;;;4995358;28;20019;-76
2023/08/19 11:22:56;;;;;;;2.78;2.50;;;;;;;;;;4978258;28;20023;-79
2023/08/19 11:25:22;;;;;;;2.80;2.60;;;;;;;;;;4999603;28;20053;-77
2023/08/19 11:27:48;;;;;;;3.03;2.53;;;;;;;;;;4997196;28;20038;-76
2023/08/19 11:30:14;;;;;;;2.70;2.50;;;;;;;;;;5014667;28;20164;-77
2023/08/19 11:32:47;;;;;;;3.45;2.85;;;;;;;;;;5015264;28;20108;-78
2023/08/19 11:35:13;;;;;;;3.22;2.92;;;;;;;;;;5017535;28;20029;-78
2023/08/19 11:37:42;;;;;;;3.40;2.60;;;;;;;;;;5031046;28;20190;-78
2023/08/19 11:40:09;;;;;;;2.85;2.67;;;;;;;;;;5021521;28;20034;-78
2023/08/19 11:42:35;;;;;;;2.35;2.22;;;;;;;;;;5014702;28;20014;-77
2023/08/19 11:45:01;;;;;;;2.30;2.20;;;;;;;;;;5014920;28;20115;-76
2023/08/19 11:47:33;;;;;;;3.20;2.67;;;;;;;;;;5000153;28;20030;-77
2023/08/19 11:49:59;;;;;;;2.53;2.33;;;;;;;;;;4996372;28;20397;-77
2023/08/19 11:52:26;;;;;;;3.00;2.70;;;;;;;;;;4995824;28;20362;-78
2023/08/19 11:54:59;;;;;;;2.70;2.50;;;;;;;;;;4996289;28;20052;-78
2023/08/19 11:57:25;;;;;;;2.80;2.30;;;;;;;;;;5007487;28;20018;-78
2023/08/19 11:59:58;;;;;;;2.47;2.30;;;;;;;;;;5012015;28;20024;-77
2023/08/19 12:02:24;;;;;;;1.88;1.77;;;;;;;;;;5015580;28;20200;-77
2023/08/19 12:04:54;;;;;;;2.53;2.30;;;;;;;;;;5019279;28;20358;-78
2023/08/19 12:07:25;;;;;;;2.45;2.25;;;;;;;;;;5016784;28;20021;-78
2023/08/19 12:09:51;;;;;;;2.13;2.03;;;;;;;;;;5015726;28;20030;-78
2023/08/19 12:12:18;;;;;;;2.28;2.17;;;;;;;;;;5015438;28;20476;-78
2023/08/19 12:14:44;;;;;;;2.38;2.17;;;;;;;;;;5014312;28;20037;-76
2023/08/19 12:17:11;;;;;;;2.63;2.42;;;;;;;;;;5008269;28;20385;-77
2023/08/19 12:19:37;;;;;;;3.58;2.30;;;;;;;;;;4994323;28;20026;-77
2023/08/19 12:22:03;;;;;;;2.88;2.60;;;;;;;;;;4994152;28;20049;-77
2023/08/19 12:24:30;;;;;;;2.97;2.00;;;;;;;;;;4993692;28;20436;-77
2023/08/19 12:26:56;;;;;;;4.72;2.40;;;;;;;;;;4994834;28;20015;-76
2023/08/19 12:29:22;;;;;;;2.55;2.35;;;;;;;;;;5014713;28;20033;-77
2023/08/19 12:31:48;;;;;;;2.05;1.95;;;;;;;;;;5017919;28;20032;-77
2023/08/19 12:34:18;;;;;;;2.50;2.35;;;;;;;;;;5017583;28;20057;-77
2023/08/19 12:36:44;;;;;;;3.20;2.50;;;;;;;;;;5033978;28;20052;-76
2023/08/19 12:39:10;;;;;;;3.20;2.47;;;;;;;;;;5015809;28;20045;-76
2023/08/19 12:41:37;;;;;;;2.67;2.47;;;;;;;;;;5013525;28;20018;-77
2023/08/19 12:44:03;;;;;;;2.63;2.42;;;;;;;;;;5013412;28;20163;-77
2023/08/19 12:46:40;;;;;;;2.47;2.30;;;;;;;;;;5012298;28;20392;-76
2023/08/19 12:49:06;;;;;;;2.58;2.30;;;;;;;;;;5000377;28;20038;-78
2023/08/19 12:51:33;;;;;;;4.90;2.40;;;;;;;;;;4995118;28;20474;-78
2023/08/19 12:53:59;;;;;;;2.80;2.40;;;;;;;;;;4994392;28;20026;-77
2023/08/19 12:56:25;;;;;;;2.83;2.63;;;;;;;;;;4993555;28;20018;-77
2023/08/19 12:58:53;;;;;;;2.60;2.08;;;;;;;;;;4997518;28;20073;-77
2023/08/19 13:01:19;;;;;;;2.65;2.45;;;;;;;;;;5012984;28;20183;-77
2023/08/19 13:03:45;;;;;;;2.33;2.22;;;;;;;;;;5012942;28;20022;-76
2023/08/19 13:06:11;;;;;;;3.58;2.33;;;;;;;;;;5013015;28;20076;-77
2023/08/19 13:08:38;;;;;;;3.70;2.35;;;;;;;;;;5010407;28;20458;-77
2023/08/19 13:11:05;;;;;;;2.35;2.15;;;;;;;;;;4994965;28;20030;-77
2023/08/19 13:13:31;;;;;;;2.92;2.10;;;;;;;;;;4977489;28;20037;-78
2023/08/19 13:15:57;;;;;;;2.95;2.53;;;;;;;;;;4995222;28;20034;-78
2023/08/19 13:18:23;;;;;;;2.47;2.15;;;;;;;;;;4996353;28;20120;-77
2023/08/19 13:20:51;;;;;;;5.03;2.50;;;;;;;;;;5019626;28;20464;-81
2023/08/19 13:23:17;;;;;;;2.47;2.28;;;;;;;;;;5017640;28;20018;-77
2023/08/19 13:25:43;;;;;;;2.67;2.45;;;;;;;;;;5019186;28;20018;-79
2023/08/19 13:28:10;;;;;;;2.30;2.10;;;;;;;;;;5020990;28;20018;-77
2023/08/19 13:30:36;;;;;;;2.42;2.22;;;;;;;;;;5014976;28;20026;-77
2023/08/19 13:33:03;;;;;;;3.92;2.35;;;;;;;;;;4991868;28;20041;-77
2023/08/19 13:35:30;;;;;;;2.42;2.22;;;;;;;;;;5026243;28;20022;-77
2023/08/19 13:37:56;;;;;;;3.38;2.63;;;;;;;;;;5034104;28;20026;-77
2023/08/19 13:40:22;;;;;;;4.97;2.58;;;;;;;;;;5022406;28;20402;-76
2023/08/19 13:42:48;;;;;;;2.97;2.40;;;;;;;;;;4997079;28;20077;-77
2023/08/19 13:45:14;;;;;;;2.80;2.47;;;;;;;;;;5012041;28;20014;-78
2023/08/19 13:47:40;;;;;;;2.83;2.42;;;;;;;;;;4996241;28;20041;-78
2023/08/19 13:50:07;;;;;;;2.65;2.25;;;;;;;;;;5015285;28;20092;-78
2023/08/19 13:52:37;;;;;;;4.28;2.50;;;;;;;;;;5014664;28;20037;-78
2023/08/19 13:55:04;;;;;;;4.28;2.28;;;;;;;;;;5016041;28;20033;-76
2023/08/19 13:57:30;;;;;;;2.33;2.13;;;;;;;;;;4998414;28;20057;-79
2023/08/19 13:59:56;;;;;;;3.60;2.55;;;;;;;;;;5013024;28;20026;-77
2023/08/19 14:02:22;;;;;;;2.55;2.35;;;;;;;;;;4997728;28;20032;-77
2023/08/19 14:04:48;;;;;;;3.22;2.40;;;;;;;;;;5015301;28;20477;-77
2023/08/19 14:07:14;;;;;;;3.45;2.47;;;;;;;;;;5015873;28;20468;-78
2023/08/19 14:09:41;;;;;;;3.05;2.10;;;;;;;;;;5017297;28;20072;-78
2023/08/19 14:12:07;;;;;;;2.30;2.10;;;;;;;;;;5016313;28;20518;-77
2023/08/19 14:14:33;;;;;;;2.20;2.03;;;;;;;;;;5015774;28;20042;-79
2023/08/19 14:16:59;;;;;;;2.40;2.20;;;;;;;;;;5017090;28;20079;-77
2023/08/19 14:19:25;;;;;;;4.35;2.70;;;;;;;;;;5016329;28;20480;-77
2023/08/19 14:21:51;;;;;;;3.65;2.38;;;;;;;;;;5016612;28;20017;-79
2023/08/19 14:24:17;;;;;;;3.83;2.50;;;;;;;;;;5016511;28;20033;-78
2023/08/19 14:26:43;;;;;;;2.30;2.10;;;;;;;;;;5000104;28;20032;-79
2023/08/19 14:29:09;;;;;;;2.60;2.40;;;;;;;;;;5012566;28;20030;-79
2023/08/19 14:31:35;;;;;;;4.57;2.42;;;;;;;;;;5017182;28;20493;-78
2023/08/19 14:34:01;;;;;;;2.67;2.20;;;;;;;;;;5023929;28;20515;-77
2023/08/19 14:36:27;;;;;;;2.38;2.28;;;;;;;;;;5001862;28;20496;-77
2023/08/19 14:38:54;;;;;;;3.25;2.53;;;;;;;;;;5018918;28;20029;-77
2023/08/19 14:41:20;;;;;;;2.13;2.03;;;;;;;;;;5005728;28;20026;-77
2023/08/19 14:43:46;;;;;;;2.92;2.72;;;;;;;;;;4995727;28;20104;-78